Weather at London Gatwick Airport

Public forecast

Using degrees Celsius for public forecast. Weather courtesy of forecast.io.

Current aviation weather report (METAR) for London Gatwick Airport

Retrieved 2020/11/28 19:20 UTC (0 seconds ago):

EGKK 281920Z 06005KT 2300 1400W R08R/P1500 BR BCFG NSC 06/06 Q1020

Aviation forecast (TAF) for London Gatwick Airport

Retrieved 2020/11/28 18:00 UTC (1 hour ago):

TAF EGKK 281653Z 2818/2924 04004KT 6000 FEW007 PROB30 TEMPO 2818/2822 3000 BR PROB40 TEMPO 2822/2901 3000 BR MIFG BKN004 BECMG 2901/2904 2000 BR BKN004 PROB40 2901/2909 0300 FG VV/// BECMG 2909/2912 9999 NSW BKN010 PROB40 TEMPO 2912/2917 7000 BECMG 2917/2920 7000 BKN007 TEMPO 2920/2924 4000 BR BKN004